Latest Weather Observations for Wynyard

IDT60801

Issued at 4:35 pm EST Wednesday 30 July 2014 (issued every 30 minutes, with the page automatically refreshed every 10 minutes)

About weather observations | Map of weather stations | Latest weather observations for TAS | Other Formats
Station Details ID: 091107 Name: WYNYARD AIRPORT Lat: -41.00 Lon: 145.73 Height: 12.0 m
Data from the previous 72 hours. | See also: Recent months at Wynyard
Date/Time
EST
Temp
°C
App
Temp
°C
Dew
Point
Rel
Hum
%
Delta-T
°C
Wind Press
QNH
hPa
Press
MSL
hPa
Rain
since 9 am
mm
Dir
 
Spd
km/h
Gust
km/h
Spd
kts
Gust
kts
30/04:30pm 14.1 7.1 11.1 82 1.6 WNW 39 65 21 35 999.6 - 2.2
30/04:00pm 13.5 6.2 11.7 89 1.0 WNW 41 67 22 36 999.6 999.7 2.2
30/03:58pm 13.6 6.3 11.7 88 1.0 WNW 41 67 22 36 999.5 - 2.2
30/03:54pm 13.4 6.9 11.6 89 1.0 WNW 37 52 20 28 999.6 - 2.2
30/03:38pm 13.3 6.9 11.9 91 0.7 WNW 37 50 20 27 999.5 - 2.0
30/03:31pm 14.1 7.5 11.3 83 1.5 WNW 37 56 20 30 999.5 - 1.8
30/03:30pm 14.1 7.1 11.1 82 1.6 WNW 39 56 21 30 999.5 - 1.8
30/03:01pm 13.9 7.6 10.9 82 1.6 WNW 35 54 19 29 999.8 - 1.8
30/03:00pm 13.8 7.1 11.0 83 1.5 WNW 37 54 20 29 999.8 999.9 1.8
30/02:48pm 14.1 7.9 11.3 83 1.5 WNW 35 54 19 29 999.7 - 1.8
30/02:46pm 14.1 8.5 12.1 88 1.1 WNW 33 50 18 27 999.8 - 1.8
30/02:31pm 13.2 6.8 11.9 92 0.7 WNW 37 52 20 28 999.9 - 1.8
30/02:30pm 13.3 7.3 12.0 92 0.7 WNW 35 50 19 27 999.9 - 1.8
30/02:00pm 14.0 6.4 11.9 87 1.1 WNW 43 67 23 36 1000.1 1000.2 1.2
30/01:59pm 13.8 6.6 12.0 89 1.0 WNW 41 65 22 35 1000.1 - 1.2
30/01:54pm 13.8 7.1 12.4 91 0.8 WNW 39 50 21 27 1000.2 - 1.2
30/01:34pm 12.8 7.5 12.5 98 0.2 WNW 32 50 17 27 1000.4 - 1.2
30/01:30pm 12.8 7.9 12.6 99 0.1 WNW 30 43 16 23 1000.5 - 1.2
30/01:26pm 12.8 7.8 12.3 97 0.3 WNW 30 44 16 24 1000.5 - 1.0
30/01:21pm 13.0 7.7 12.4 96 0.3 WNW 32 46 17 25 1000.4 - 0.8
30/01:09pm 13.2 7.4 12.7 97 0.3 WNW 35 56 19 30 1000.5 - 0.8
30/01:07pm 13.0 7.1 12.4 96 0.3 WNW 35 56 19 30 1000.6 - 0.8
30/01:01pm 12.9 7.5 12.1 95 0.4 WNW 32 50 17 27 1000.6 - 0.8
30/01:00pm 12.7 7.0 11.8 94 0.5 WNW 33 50 18 27 1000.6 1000.7 0.8
30/12:32pm 12.9 5.8 11.0 88 1.0 NW 39 50 21 27 1001.2 - 0.8
30/12:30pm 13.3 6.2 10.8 85 1.3 NW 39 50 21 27 1001.2 - 0.8
30/12:09pm 13.8 7.5 11.0 83 1.5 WNW 35 61 19 33 1001.6 - 0.8
30/12:00pm 13.4 7.5 11.1 86 1.2 WNW 33 46 18 25 1001.9 1002.0 0.8
30/11:30am 12.9 6.6 11.0 88 1.0 WNW 35 50 19 27 1002.5 - 0.8
30/11:02am 12.5 6.5 10.2 86 1.2 WNW 32 54 17 29 1003.0 - 0.6
30/11:00am 12.7 7.3 10.8 88 1.0 WNW 30 41 16 22 1003.0 1003.1 0.6
30/10:35am 12.4 6.5 10.6 89 0.9 WNW 32 50 17 27 1003.0 - 0.4
30/10:30am 12.6 6.1 10.5 87 1.1 WNW 35 50 19 27 1003.2 - 0.4
30/10:00am 12.6 7.0 10.1 85 1.3 WNW 30 41 16 22 1003.0 1003.1 0.0
30/09:30am 12.3 8.3 10.4 88 1.0 WNW 22 32 12 17 1003.2 - 0.0
30/09:10am 11.9 6.7 10.3 90 0.8 WNW 28 41 15 22 1003.2 - 0.0
30/09:00am 11.5 5.7 10.7 95 0.4 W 32 44 17 24 1003.2 1003.3 6.4
30/08:54am 11.7 5.8 10.4 92 0.7 WNW 32 44 17 24 1003.2 - 6.4
30/08:30am 11.8 8.1 10.0 89 0.9 WNW 20 30 11 16 1003.0 - 6.2
30/08:00am 11.4 5.7 9.7 89 0.9 WNW 30 39 16 21 1003.1 1003.2 6.2
30/07:57am 11.4 5.3 9.8 90 0.8 WNW 32 39 17 21 1003.1 - 6.2
30/07:30am 10.1 7.1 7.5 84 1.2 WNW 13 20 7 11 1002.9 - 6.2
30/07:00am 10.4 7.4 7.6 83 1.4 WNW 13 20 7 11 1002.6 1002.7 6.2
30/06:30am 9.8 7.0 7.1 83 1.3 WNW 11 15 6 8 1002.8 - 6.2
30/06:00am 9.9 6.0 7.0 82 1.4 WNW 17 24 9 13 1002.8 1002.9 6.2
30/05:30am 10.2 6.4 7.4 83 1.3 WNW 17 22 9 12 1002.4 - 6.2
30/05:00am 10.1 5.8 7.2 82 1.4 W 19 26 10 14 1002.3 1002.4 6.2
30/04:30am 10.4 4.6 6.2 75 2.0 W 26 35 14 19 1002.2 - 6.2
30/04:09am 10.8 3.8 5.8 71 2.3 W 32 50 17 27 1001.9 - 6.2
30/04:00am 10.7 3.6 5.7 71 2.3 W 32 44 17 24 1001.9 1002.0 6.2
30/03:30am 10.9 3.9 5.9 71 2.3 W 32 46 17 25 1001.7 - 6.2
30/03:00am 11.0 3.4 6.0 71 2.3 W 35 48 19 26 1001.4 1001.5 6.2
30/02:30am 11.5 3.5 5.8 68 2.7 W 37 54 20 29 1001.2 - 6.2
30/02:00am 11.6 2.4 5.5 66 2.8 W 43 65 23 35 1000.9 1001.0 6.2
30/01:30am 11.8 3.5 6.1 68 2.7 W 39 57 21 31 1000.4 - 6.2
30/01:03am 11.9 4.5 6.8 71 2.4 W 35 56 19 30 999.9 - 6.2
30/01:00am 11.8 4.5 7.1 73 2.3 W 35 50 19 27 999.9 1000.0 6.2
30/12:30am 12.1 4.0 6.8 70 2.5 W 39 57 21 31 999.5 - 6.2
30/12:00am 12.1 2.6 6.6 69 2.6 W 46 69 25 37 999.1 999.1 6.2
 
Date/Time
EST
Temp
°C
App
Temp
°C
Dew
Point
Rel
Hum
%
Delta-T
°C
Wind Press
QNH
hPa
Press
MSL
hPa
Rain
since 9 am
mm
Dir
 
Spd
km/h
Gust
km/h
Spd
kts
Gust
kts
29/11:30pm 11.8 0.4 6.5 70 2.5 W 56 78 30 42 998.5 - 6.2
29/11:29pm 11.9 -0.1 6.4 69 2.6 W 59 78 32 42 998.4 - 6.2
29/11:28pm 12.2 -0.6 6.5 68 2.7 W 63 78 34 42 998.3 - 6.2
29/11:00pm 11.4 2.7 7.7 78 1.8 W 43 65 23 35 998.5 998.5 6.2
29/10:30pm 11.7 2.9 7.4 75 2.1 W 43 65 23 35 998.1 - 6.0
29/10:08pm 11.2 4.9 9.1 87 1.0 W 32 50 17 27 998.3 - 6.0
29/10:02pm 11.2 5.0 9.5 89 0.9 W 32 43 17 23 998.1 - 6.0
29/10:00pm 11.1 4.9 9.4 89 0.9 W 32 43 17 23 998.0 998.0 6.0
29/09:43pm 10.7 4.6 9.9 95 0.4 WSW 32 54 17 29 998.0 - 6.0
29/09:37pm 10.9 5.2 9.8 93 0.6 W 30 39 16 21 998.0 - 5.2
29/09:34pm 10.9 5.5 9.5 91 0.7 W 28 39 15 21 997.9 - 5.2
29/09:30pm 11.1 4.9 9.4 89 0.9 W 32 39 17 21 997.7 - 5.0
29/09:21pm 11.0 1.7 9.3 89 0.8 W 48 67 26 36 997.5 - 5.0
29/09:14pm 11.3 0.4 9.0 86 1.1 W 56 67 30 36 997.7 - 5.0
29/09:01pm 12.0 4.4 7.7 75 2.1 W 37 61 20 33 997.3 - 4.4
29/09:00pm 11.7 4.6 8.2 79 1.7 W 35 44 19 24 997.4 997.4 4.4
29/08:45pm 11.6 4.4 9.0 84 1.3 W 37 56 20 30 997.4 - 4.4
29/08:44pm 11.7 4.1 9.1 84 1.3 W 39 56 21 30 997.3 - 4.4
29/08:30pm 12.1 3.1 8.9 81 1.6 WNW 46 69 25 37 996.7 - 4.4
29/08:27pm 11.9 3.6 9.3 84 1.3 WNW 43 61 23 33 996.8 - 4.4
29/08:00pm 12.3 3.8 9.3 82 1.5 WNW 44 65 24 35 996.3 996.3 4.4
29/07:30pm 12.0 3.2 9.7 86 1.2 W 46 72 25 39 996.3 - 4.4
29/07:10pm 12.1 3.8 10.0 87 1.1 WNW 44 69 24 37 995.8 - 4.4
29/07:00pm 12.0 5.6 10.6 91 0.7 WNW 35 57 19 31 995.6 995.6 4.4
29/06:48pm 11.9 6.0 11.1 95 0.4 W 33 43 18 23 995.3 - 4.2
29/06:30pm 12.4 1.9 10.3 87 1.1 W 56 78 30 42 995.1 - 3.2
29/06:07pm 12.8 3.2 9.6 81 1.6 W 50 72 27 39 994.8 - 3.0
29/06:00pm 12.9 2.1 9.9 82 1.6 W 57 80 31 43 994.7 994.7 3.0
29/05:52pm 12.8 2.5 10.9 88 1.0 WNW 56 76 30 41 994.3 - 3.0
29/05:30pm 13.7 4.4 10.5 81 1.7 WNW 50 70 27 38 993.4 - 3.0
29/05:00pm 13.5 3.2 11.0 85 1.3 WNW 56 82 30 44 993.4 993.4 3.0
29/04:55pm 13.2 3.4 11.3 88 1.0 W 54 72 29 39 993.6 - 3.0
29/04:51pm 13.3 2.5 11.2 87 1.1 W 59 69 32 37 993.3 - 3.0
29/04:30pm 13.7 6.3 11.2 85 1.3 WNW 41 65 22 35 993.3 - 2.8
29/04:00pm 13.9 5.9 11.2 84 1.4 WNW 44 67 24 36 993.5 993.5 2.8
29/03:30pm 13.4 5.3 12.1 92 0.7 WNW 46 67 25 36 993.4 - 2.8
29/03:21pm 13.4 5.3 12.1 92 0.7 WNW 46 67 25 36 993.3 - 2.4
29/03:01pm 13.1 6.4 12.2 94 0.5 WNW 39 57 21 31 993.6 - 2.4
29/03:00pm 13.1 6.4 12.3 95 0.4 WNW 39 54 21 29 993.7 993.7 2.4
29/02:48pm 13.0 6.3 12.2 95 0.4 WNW 39 59 21 32 993.9 - 2.4
29/02:38pm 12.9 6.1 11.8 93 0.6 WNW 39 52 21 28 994.1 - 2.2
29/02:30pm 13.2 6.5 11.1 87 1.1 WNW 37 50 20 27 994.1 - 2.0
29/02:09pm 12.9 6.6 11.0 88 1.0 WNW 35 57 19 31 994.6 - 2.0
29/02:00pm 12.6 5.5 10.8 89 0.9 WNW 39 54 21 29 994.6 994.6 2.0
29/01:55pm 12.5 5.0 10.9 90 0.8 WNW 41 54 22 29 994.6 - 2.0
29/01:36pm 12.1 6.1 10.8 92 0.7 WNW 33 46 18 25 995.1 - 2.0
29/01:30pm 12.3 6.3 10.9 91 0.7 WNW 33 43 18 23 995.2 - 1.8
29/01:23pm 12.1 6.0 10.5 90 0.8 WNW 33 44 18 24 995.2 - 1.8
29/01:04pm 11.9 6.0 10.6 92 0.7 WNW 32 48 17 26 995.7 - 1.4
29/01:00pm 11.9 6.4 10.6 92 0.7 WNW 30 43 16 23 995.7 995.7 1.4
29/12:58pm 11.9 6.5 10.8 93 0.6 WNW 30 48 16 26 995.7 - 1.4
29/12:30pm 11.7 5.4 9.6 87 1.1 W 33 46 18 25 996.0 - 1.4
29/12:00pm 12.0 4.7 10.2 89 0.9 W 39 61 21 33 996.2 996.2 1.4
29/11:57am 11.8 4.0 9.9 88 1.0 W 41 61 22 33 996.2 - 1.4
29/11:47am 12.3 5.6 10.9 91 0.7 WSW 37 52 20 28 996.1 - 1.2
29/11:34am 13.1 6.3 11.8 92 0.7 WNW 39 59 21 32 995.7 - 0.8
29/11:30am 13.7 6.4 11.4 86 1.2 WNW 41 59 22 32 995.6 - 0.4
29/11:00am 13.5 7.4 11.6 88 1.0 WNW 35 59 19 32 996.0 996.0 0.4
29/10:45am 13.5 8.6 11.2 86 1.2 WNW 28 48 15 26 996.2 - 0.4
29/10:30am 13.4 7.9 10.4 82 1.6 WNW 30 43 16 23 996.3 - 0.4
29/10:00am 13.6 5.5 10.2 80 1.8 WNW 43 65 23 35 996.5 996.5 0.4
29/09:30am 13.6 5.7 10.9 84 1.4 WNW 43 72 23 39 996.4 - 0.4
29/09:27am 13.4 6.5 11.5 88 1.0 WNW 39 57 21 31 996.4 - 0.4
29/09:10am 12.9 6.1 11.8 93 0.6 WNW 39 57 21 31 996.5 - 0.2
29/09:00am 13.4 5.9 12.0 91 0.8 WNW 43 63 23 34 996.7 996.7 42.6
29/08:59am 13.4 5.9 12.0 91 0.8 WNW 43 63 23 34 996.7 - 42.6
29/08:49am 13.1 6.1 12.5 96 0.3 WNW 41 57 22 31 996.6 - 42.6
29/08:30am 12.7 3.2 12.5 99 0.1 WNW 54 74 29 40 996.6 - 42.4
29/08:23am 12.8 5.1 11.5 92 0.7 WNW 43 74 23 40 996.6 - 41.4
29/08:07am 13.1 6.5 12.5 96 0.3 WNW 39 61 21 33 996.9 - 41.0
29/08:01am 13.0 4.6 12.4 96 0.3 WNW 48 69 26 37 996.9 - 41.0
29/08:00am 13.0 4.6 12.4 96 0.3 WNW 48 69 26 37 996.9 996.9 41.0
29/07:59am 13.1 4.3 12.3 95 0.4 WNW 50 69 27 37 996.8 - 41.0
29/07:54am 12.9 3.1 12.6 98 0.2 WNW 56 69 30 37 996.6 - 41.0
29/07:35am 11.9 5.8 11.7 99 0.1 WNW 35 54 19 29 996.7 - 39.6
29/07:30am 11.5 4.5 11.3 99 0.1 WNW 39 56 21 30 996.6 - 38.6
29/07:14am 11.5 2.0 11.3 99 0.1 WNW 52 70 28 38 997.0 - 34.4
29/07:12am 11.8 1.4 11.5 98 0.2 WNW 57 70 31 38 996.6 - 32.2
29/07:00am 12.4 6.1 12.2 99 0.1 NW 37 56 20 30 996.8 996.8 27.8
29/06:59am 12.5 6.6 12.3 99 0.1 NW 35 52 19 28 997.0 - 27.2
29/06:49am 12.7 5.3 12.5 99 0.1 NW 43 74 23 40 996.9 - 25.2
29/06:39am 12.8 5.8 12.6 99 0.1 NW 41 80 22 43 996.4 - 25.0
29/06:30am 12.6 6.3 12.4 99 0.1 NW 37 59 20 32 997.0 - 24.2
29/06:23am 12.5 7.5 12.3 99 0.1 NW 30 59 16 32 997.2 - 23.8
29/06:18am 12.3 7.3 12.1 99 0.1 NW 30 44 16 24 997.1 - 23.8
29/06:04am 12.4 6.8 12.2 99 0.1 NW 33 48 18 26 997.8 - 23.0
29/06:00am 12.3 5.9 12.1 99 0.1 NW 37 57 20 31 998.0 998.0 22.8
29/05:47am 12.5 5.8 12.3 99 0.1 NW 39 63 21 34 998.1 - 21.2
29/05:41am 12.5 6.2 12.3 99 0.1 NW 37 50 20 27 997.9 - 20.6
29/05:38am 12.1 6.4 11.9 99 0.1 W 33 50 18 27 998.0 - 20.4
29/05:35am 12.0 6.5 11.8 99 0.1 W 32 50 17 27 997.7 - 20.2
29/05:30am 12.4 7.0 12.2 99 0.1 NW 32 46 17 25 997.4 - 18.4
29/05:15am 12.6 6.3 12.4 99 0.1 NW 37 56 20 30 998.4 - 16.6
29/05:01am 12.5 6.6 12.3 99 0.1 NW 35 54 19 29 998.5 - 16.4
29/05:00am 12.5 6.6 12.3 99 0.1 NW 35 54 19 29 998.5 998.5 16.4
29/04:39am 12.5 5.8 12.3 99 0.1 NW 39 57 21 31 999.0 - 16.2
29/04:33am 12.5 5.4 12.3 99 0.1 NW 41 57 22 31 999.1 - 16.2
29/04:30am 12.5 5.8 12.3 99 0.1 NW 39 57 21 31 999.0 - 16.2
29/04:13am 11.9 5.8 11.7 99 0.1 NW 35 59 19 32 999.3 - 16.0
29/04:11am 11.9 6.2 11.7 99 0.1 NW 33 50 18 27 999.3 - 14.4
29/04:03am 12.1 6.4 11.9 99 0.1 NW 33 52 18 28 999.6 - 11.6
29/04:01am 12.2 6.2 12.0 99 0.1 NW 35 52 19 28 999.6 - 11.4
29/04:00am 12.2 6.2 12.0 99 0.1 NW 35 52 19 28 999.6 999.7 11.4
29/03:49am 12.2 7.5 12.0 99 0.1 NW 28 41 15 22 999.9 - 10.4
29/03:47am 12.2 7.5 12.0 99 0.1 NW 28 41 15 22 999.9 - 10.4
29/03:44am 12.2 7.5 12.0 99 0.1 NW 28 41 15 22 999.9 - 9.6
29/03:43am 12.2 7.1 12.0 99 0.1 NW 30 41 16 22 999.9 - 9.6
29/03:31am 12.4 6.4 12.2 99 0.1 NW 35 48 19 26 1000.0 - 9.6
29/03:30am 12.4 6.8 12.2 99 0.1 NW 33 48 18 26 1000.0 - 9.6
29/03:22am 12.6 7.1 12.3 98 0.2 NW 33 52 18 28 1000.2 - 9.4
29/03:20am 12.6 7.0 12.1 97 0.3 NW 33 52 18 28 1000.2 - 9.4
29/03:00am 12.4 7.8 12.2 99 0.1 NW 28 48 15 26 1000.5 1000.6 9.4
29/02:39am 12.4 7.7 12.1 98 0.2 NW 28 48 15 26 1001.3 - 9.4
29/02:30am 12.3 7.2 11.8 97 0.3 NW 30 43 16 23 1001.4 - 9.4
29/02:25am 12.3 7.5 11.8 97 0.3 NW 28 43 15 23 1001.5 - 9.4
29/02:14am 12.0 6.9 11.8 99 0.1 NW 30 43 16 23 1001.9 - 9.2
29/02:13am 12.0 6.9 11.8 99 0.1 NW 30 43 16 23 1001.9 - 9.2
29/02:07am 12.2 7.1 12.0 99 0.1 NW 30 39 16 21 1002.1 - 9.2
29/02:00am 12.3 7.6 12.0 98 0.2 NW 28 46 15 25 1002.2 1002.3 9.0
29/01:56am 12.4 7.6 11.8 96 0.3 NW 28 46 15 25 1002.2 - 9.0
29/01:52am 12.4 7.3 11.8 96 0.3 NW 30 46 16 25 1002.1 - 9.0
29/01:30am 12.0 6.8 11.7 98 0.2 NW 30 43 16 23 1002.5 - 9.0
29/01:11am 12.3 6.5 11.4 94 0.5 NW 33 52 18 28 1002.7 - 8.4
29/01:00am 12.0 6.7 11.2 95 0.4 NW 30 44 16 24 1002.9 1003.0 8.4
29/12:30am 11.4 6.4 10.9 97 0.3 NW 28 43 15 23 1003.6 - 8.4
29/12:00am 11.1 7.7 10.6 97 0.3 NW 19 32 10 17 1004.0 1004.1 8.2
 
Date/Time
EST
Temp
°C
App
Temp
°C
Dew
Point
Rel
Hum
%
Delta-T
°C
Wind Press
QNH
hPa
Press
MSL
hPa
Rain
since 9 am
mm
Dir
 
Spd
km/h
Gust
km/h
Spd
kts
Gust
kts
28/11:30pm 11.1 7.4 10.0 93 0.6 NW 20 35 11 19 1004.4 - 7.6
28/11:00pm 11.9 8.7 11.4 97 0.3 W 19 26 10 14 1004.6 1004.7 7.0
28/10:38pm 12.2 7.3 11.4 95 0.4 WNW 28 43 15 23 1005.0 - 6.6
28/10:30pm 12.1 7.4 11.9 99 0.1 W 28 43 15 23 1005.0 - 6.6
28/10:25pm 12.0 6.5 12.0 100 0.0 NW 32 39 17 21 1004.8 - 6.6
28/10:00pm 9.9 8.6 9.9 100 0.0 S 7 11 4 6 1005.1 1005.2 6.6
28/09:59pm 9.9 8.6 9.8 99 0.1 S 7 11 4 6 1005.1 - 6.6
28/09:30pm 9.7 9.3 9.6 99 0.0 S 2 9 1 5 1005.3 - 6.4
28/09:07pm 9.6 7.8 9.5 99 0.0 SSE 9 9 5 5 1005.6 - 6.4
28/09:00pm 9.5 7.7 9.4 99 0.0 S 9 11 5 6 1005.7 1005.8 6.4
28/08:54pm 9.6 8.2 9.5 99 0.0 S 7 11 4 6 1005.8 - 6.4
28/08:30pm 9.9 9.5 9.8 99 0.1 N 2 7 1 4 1005.9 - 6.4
28/08:00pm 9.8 9.4 9.7 99 0.1 WSW 2 6 1 3 1006.0 1006.1 6.4
28/07:30pm 9.7 7.9 9.4 98 0.1 WSW 9 13 5 7 1006.3 - 6.4
28/07:00pm 9.7 8.2 9.1 96 0.3 W 7 9 4 5 1006.6 1006.7 6.4
28/06:31pm 10.5 5.4 9.3 92 0.6 W 26 35 14 19 1006.3 - 6.4
28/06:30pm 10.5 5.5 9.4 93 0.5 W 26 35 14 19 1006.3 - 6.4
28/06:20pm 10.6 3.8 9.2 91 0.7 W 35 43 19 23 1006.2 - 6.4
28/06:16pm 10.8 -0.1 8.9 88 0.9 WNW 56 76 30 41 1006.2 - 6.4
28/06:15pm 10.9 0.0 9.0 88 0.9 WNW 56 76 30 41 1006.3 - 6.2
28/06:14pm 11.0 -0.5 8.6 85 1.2 WNW 59 76 32 41 1006.3 - 6.2
28/06:13pm 11.1 4.5 8.7 85 1.2 WNW 33 76 18 41 1006.4 - 6.2
28/06:00pm 11.5 6.7 8.9 84 1.3 WNW 24 37 13 20 1005.8 1005.9 5.8
28/05:30pm 12.4 7.4 12.2 99 0.1 WNW 30 37 16 20 1006.1 - 5.8
28/05:20pm 12.6 8.8 12.4 99 0.1 NNW 24 30 13 16 1005.5 - 5.4
28/05:07pm 12.8 9.6 12.0 95 0.4 NW 20 28 11 15 1005.9 - 5.2
28/05:00pm 13.0 9.7 11.7 92 0.7 NW 20 26 11 14 1005.9 1006.0 4.8
28/04:30pm 13.3 9.0 10.8 85 1.3 NW 24 37 13 20 1005.9 - 4.8
28/04:00pm 13.7 9.9 11.2 85 1.3 WNW 22 32 12 17 1006.2 1006.3 4.8
28/03:30pm 13.3 9.9 10.7 84 1.4 WNW 19 26 10 14 1006.1 - 4.8
28/03:00pm 13.5 9.6 9.6 77 2.0 WNW 20 28 11 15 1006.3 1006.4 4.8
28/02:30pm 14.7 8.5 10.1 74 2.4 WNW 33 46 18 25 1006.5 - 4.8
28/02:21pm 14.4 8.1 9.8 74 2.4 WNW 33 46 18 25 1006.5 - 4.8
28/02:00pm 14.7 11.5 11.8 83 1.6 WNW 20 28 11 15 1006.7 1006.8 4.8
28/01:30pm 12.0 7.0 9.4 84 1.3 WNW 26 33 14 18 1007.3 - 4.8
28/01:00pm 12.9 9.7 11.3 90 0.8 W 19 24 10 13 1007.6 1007.7 4.8
28/12:30pm 13.0 9.0 11.9 93 0.6 NW 24 33 13 18 1007.8 - 4.8
28/12:19pm 12.8 7.7 12.0 95 0.4 WNW 30 46 16 25 1008.0 - 4.6
28/12:12pm 12.3 7.1 10.4 88 1.0 WNW 28 46 15 25 1008.0 - 4.6
28/12:00pm 12.6 8.8 12.4 99 0.1 WNW 24 32 13 17 1008.3 1008.4 4.2
28/11:50am 13.3 9.3 13.1 99 0.1 WNW 26 33 14 18 1008.6 - 1.8
28/11:38am 13.5 10.2 12.9 96 0.3 NW 22 32 12 17 1008.5 - 0.8
28/11:30am 13.5 10.1 12.6 94 0.5 NW 22 35 12 19 1008.6 - 0.6
28/11:28am 13.8 10.6 13.0 95 0.4 NW 22 35 12 19 1008.7 - 0.6
28/11:18am 14.4 10.3 12.8 90 0.9 NW 26 37 14 20 1008.7 - 0.4
28/11:08am 14.3 10.3 12.9 91 0.8 NW 26 33 14 18 1008.8 - 0.4
28/11:00am 14.8 11.4 13.8 94 0.6 NW 24 37 13 20 1009.1 1009.2 0.4
28/10:58am 14.5 10.7 13.5 94 0.6 NW 26 37 14 20 1009.0 - 0.4
28/10:54am 14.2 9.9 13.2 94 0.6 NW 28 41 15 22 1009.1 - 0.4
28/10:30am 13.9 10.9 12.5 91 0.8 WNW 20 32 11 17 1009.3 - 0.0
28/10:00am 13.9 13.2 13.3 96 0.3 W 9 13 5 7 1009.5 1009.6 0.0
28/09:49am 13.4 11.8 12.9 97 0.3 W 13 17 7 9 1009.6 - 0.0
28/09:30am 12.7 11.4 12.5 99 0.1 W 11 19 6 10 1009.5 - 0.0
28/09:00am 11.2 9.8 11.0 99 0.1 W 9 11 5 6 1009.8 1009.9 2.6
28/08:52am 10.5 8.5 10.3 99 0.1 W 11 13 6 7 1009.8 - 2.6
28/08:30am 10.3 7.9 10.1 99 0.1 W 13 17 7 9 1009.9 - 2.6
28/08:00am 10.4 8.4 10.2 99 0.1 W 11 15 6 8 1010.1 1010.2 2.6
28/07:30am 10.6 7.5 10.3 98 0.2 WNW 17 20 9 11 1010.2 - 2.4
28/07:00am 11.1 7.6 10.8 98 0.2 WNW 20 30 11 16 1010.1 1010.2 2.2
28/06:47am 11.4 7.4 10.5 94 0.5 WNW 22 30 12 16 1010.2 - 1.6
28/06:42am 11.7 7.4 10.6 93 0.6 WNW 24 30 13 16 1010.0 - 1.6
28/06:30am 12.1 8.1 11.9 99 0.1 W 24 35 13 19 1010.1 - 1.2
28/06:24am 12.5 8.6 12.2 98 0.2 W 24 32 13 17 1010.1 - 0.8
28/06:00am 12.8 9.5 11.5 92 0.7 NW 20 32 11 17 1009.6 1009.7 0.0
28/05:30am 13.0 8.9 11.4 90 0.8 NW 24 32 13 17 1009.6 - 0.0
28/05:00am 13.0 9.6 11.2 89 1.0 NW 20 32 11 17 1009.7 1009.8 0.0
28/04:30am 13.1 9.3 11.0 87 1.1 NW 22 33 12 18 1010.1 - 0.0
28/04:00am 12.9 9.1 11.0 88 1.0 NW 22 32 12 17 1010.4 1010.5 0.0
28/03:30am 13.2 8.8 10.4 83 1.5 WNW 24 41 13 22 1010.8 - 0.0
28/03:00am 13.1 9.1 10.5 84 1.4 WNW 22 32 12 17 1011.1 1011.2 0.0
28/02:30am 13.2 8.4 10.4 83 1.5 WNW 26 35 14 19 1011.6 - 0.0
28/02:00am 12.9 9.4 10.8 87 1.1 WNW 20 28 11 15 1011.9 1012.0 0.0
28/01:30am 12.6 9.3 11.0 90 0.8 WNW 19 28 10 15 1012.0 - 0.0
28/01:00am 12.3 9.1 11.2 93 0.6 WNW 19 26 10 14 1012.3 1012.4 0.0
28/12:30am 12.5 9.2 11.6 94 0.5 NW 20 28 11 15 1012.8 - 0.0
28/12:00am 11.6 9.1 11.0 96 0.3 WNW 15 20 8 11 1013.4 1013.5 0.0
 
Date/Time
EST
Temp
°C
App
Temp
°C
Dew
Point
Rel
Hum
%
Delta-T
°C
Wind Press
QNH
hPa
Press
MSL
hPa
Rain
since 9 am
mm
Dir
 
Spd
km/h
Gust
km/h
Spd
kts
Gust
kts
27/11:30pm 11.4 8.8 10.6 95 0.4 WNW 15 19 8 10 1013.7 - 0.0
27/11:00pm 12.3 9.5 11.5 95 0.4 WNW 17 24 9 13 1013.8 1013.9 0.0
27/10:30pm 12.0 9.3 11.8 99 0.1 WNW 17 22 9 12 1014.2 - 0.0
27/10:00pm 12.1 10.6 11.8 98 0.2 WNW 11 15 6 8 1014.5 1014.6 0.0
27/09:30pm 12.5 9.9 12.0 97 0.3 NW 17 22 9 12 1014.6 - 0.0
27/09:00pm 12.8 9.8 11.9 94 0.5 NW 19 26 10 14 1015.0 1015.1 0.0
27/08:30pm 12.8 9.4 11.4 91 0.7 NW 20 28 11 15 1015.1 - 0.0
27/08:00pm 12.7 9.8 11.1 90 0.8 NW 17 24 9 13 1015.4 1015.5 0.0
27/07:30pm 12.6 8.7 10.8 89 0.9 NW 22 39 12 21 1015.6 - 0.0
27/07:00pm 12.5 9.5 10.7 89 0.9 NW 17 22 9 12 1015.8 1015.9 0.0
27/06:30pm 12.3 9.7 10.7 90 0.8 NW 15 22 8 12 1015.8 - 0.0
27/06:00pm 12.3 9.8 10.9 91 0.7 NW 15 19 8 10 1015.9 1016.0 0.0
27/05:30pm 12.4 9.0 11.1 92 0.7 NW 20 24 11 13 1015.8 - 0.0
27/05:00pm 12.6 9.2 11.2 91 0.7 NW 20 32 11 17 1015.7 1015.8 0.0

Other Formats:

Comma delimited format used in spreadsheet applications
http://www.bom.gov.au/fwo/IDT60801/IDT60801.95957.axf

JavaScript Object Notation format (JSON) in row-major order
http://www.bom.gov.au/fwo/IDT60801/IDT60801.95957.json